sensor_id;sensor_type;location;lat;lon;timestamp;P1;durP1;ratioP1;P2;durP2;ratioP2
58250;SDS011;51449;51.676;5.812;2023-05-14T00:01:20;9.83;;;8.93;;
58250;SDS011;51449;51.676;5.812;2023-05-14T00:03:42;9.97;;;8.93;;
58250;SDS011;51449;51.676;5.812;2023-05-14T00:06:04;9.80;;;8.90;;
58250;SDS011;51449;51.676;5.812;2023-05-14T00:08:27;10.47;;;9.37;;
58250;SDS011;51449;51.676;5.812;2023-05-14T00:10:49;11.33;;;10.07;;
58250;SDS011;51449;51.676;5.812;2023-05-14T00:13:11;11.93;;;10.00;;
58250;SDS011;51449;51.676;5.812;2023-05-14T00:15:32;10.93;;;9.77;;
58250;SDS011;51449;51.676;5.812;2023-05-14T00:17:55;12.23;;;10.33;;
58250;SDS011;51449;51.676;5.812;2023-05-14T00:20:16;11.57;;;10.43;;
58250;SDS011;51449;51.676;5.812;2023-05-14T00:22:38;11.43;;;10.27;;
58250;SDS011;51449;51.676;5.812;2023-05-14T00:25:00;11.70;;;10.50;;
58250;SDS011;51449;51.676;5.812;2023-05-14T00:27:22;11.90;;;10.70;;
58250;SDS011;51449;51.676;5.812;2023-05-14T00:29:44;13.07;;;10.83;;
58250;SDS011;51449;51.676;5.812;2023-05-14T00:32:06;12.30;;;11.13;;
58250;SDS011;51449;51.676;5.812;2023-05-14T00:34:28;11.10;;;10.00;;
58250;SDS011;51449;51.676;5.812;2023-05-14T00:36:50;11.67;;;10.47;;
58250;SDS011;51449;51.676;5.812;2023-05-14T00:39:12;12.30;;;10.57;;
58250;SDS011;51449;51.676;5.812;2023-05-14T00:41:34;12.20;;;11.00;;
58250;SDS011;51449;51.676;5.812;2023-05-14T00:43:56;12.33;;;11.13;;
58250;SDS011;51449;51.676;5.812;2023-05-14T00:46:18;12.47;;;11.27;;
58250;SDS011;51449;51.676;5.812;2023-05-14T00:48:40;12.53;;;11.27;;
58250;SDS011;51449;51.676;5.812;2023-05-14T00:51:02;14.07;;;11.80;;
58250;SDS011;51449;51.676;5.812;2023-05-14T00:53:24;13.33;;;11.87;;
58250;SDS011;51449;51.676;5.812;2023-05-14T00:55:48;12.63;;;10.90;;
58250;SDS011;51449;51.676;5.812;2023-05-14T00:58:12;13.93;;;12.50;;
58250;SDS011;51449;51.676;5.812;2023-05-14T01:00:34;13.95;;;12.35;;
58250;SDS011;51449;51.676;5.812;2023-05-14T01:02:57;14.57;;;12.80;;
58250;SDS011;51449;51.676;5.812;2023-05-14T01:05:21;13.77;;;12.02;;
58250;SDS011;51449;51.676;5.812;2023-05-14T01:10:51;14.37;;;12.10;;
58250;SDS011;51449;51.676;5.812;2023-05-14T01:15:51;14.90;;;12.63;;
58250;SDS011;51449;51.676;5.812;2023-05-14T01:18:17;14.47;;;12.30;;
58250;SDS011;51449;51.676;5.812;2023-05-14T01:20:40;14.40;;;12.63;;
58250;SDS011;51449;51.676;5.812;2023-05-14T01:23:02;14.90;;;12.73;;
58250;SDS011;51449;51.676;5.812;2023-05-14T01:25:24;15.93;;;13.23;;
58250;SDS011;51449;51.676;5.812;2023-05-14T01:30:46;15.70;;;13.40;;
58250;SDS011;51449;51.676;5.812;2023-05-14T01:33:15;14.97;;;12.90;;
58250;SDS011;51449;51.676;5.812;2023-05-14T01:35:40;16.27;;;14.43;;
58250;SDS011;51449;51.676;5.812;2023-05-14T01:38:05;17.63;;;14.35;;
58250;SDS011;51449;51.676;5.812;2023-05-14T01:40:31;14.23;;;12.77;;
58250;SDS011;51449;51.676;5.812;2023-05-14T01:42:55;15.77;;;13.88;;
58250;SDS011;51449;51.676;5.812;2023-05-14T01:45:24;16.23;;;13.97;;
58250;SDS011;51449;51.676;5.812;2023-05-14T01:47:46;15.40;;;13.77;;
58250;SDS011;51449;51.676;5.812;2023-05-14T01:50:09;16.70;;;14.13;;
58250;SDS011;51449;51.676;5.812;2023-05-14T01:52:31;17.33;;;14.40;;
58250;SDS011;51449;51.676;5.812;2023-05-14T01:54:53;16.57;;;14.27;;
58250;SDS011;51449;51.676;5.812;2023-05-14T01:57:15;17.50;;;14.77;;
58250;SDS011;51449;51.676;5.812;2023-05-14T01:59:36;15.30;;;13.23;;
58250;SDS011;51449;51.676;5.812;2023-05-14T02:01:58;15.53;;;13.83;;
58250;SDS011;51449;51.676;5.812;2023-05-14T02:04:20;20.00;;;15.57;;
58250;SDS011;51449;51.676;5.812;2023-05-14T02:06:42;15.80;;;14.10;;
58250;SDS011;51449;51.676;5.812;2023-05-14T02:09:03;17.23;;;14.57;;
58250;SDS011;51449;51.676;5.812;2023-05-14T02:11:25;15.83;;;14.00;;
58250;SDS011;51449;51.676;5.812;2023-05-14T02:13:47;16.90;;;14.83;;
58250;SDS011;51449;51.676;5.812;2023-05-14T02:16:09;16.97;;;14.20;;
58250;SDS011;51449;51.676;5.812;2023-05-14T02:18:32;18.87;;;15.23;;
58250;SDS011;51449;51.676;5.812;2023-05-14T02:20:53;17.40;;;15.53;;
58250;SDS011;51449;51.676;5.812;2023-05-14T02:23:15;17.33;;;14.77;;
58250;SDS011;51449;51.676;5.812;2023-05-14T02:25:37;15.87;;;14.33;;
58250;SDS011;51449;51.676;5.812;2023-05-14T02:27:59;19.63;;;14.40;;
58250;SDS011;51449;51.676;5.812;2023-05-14T02:30:21;16.30;;;14.70;;
58250;SDS011;51449;51.676;5.812;2023-05-14T02:32:43;17.57;;;14.30;;
58250;SDS011;51449;51.676;5.812;2023-05-14T02:35:05;16.37;;;13.43;;
58250;SDS011;51449;51.676;5.812;2023-05-14T02:37:28;16.67;;;14.87;;
58250;SDS011;51449;51.676;5.812;2023-05-14T02:39:50;16.43;;;14.73;;
58250;SDS011;51449;51.676;5.812;2023-05-14T02:42:16;18.73;;;14.80;;
58250;SDS011;51449;51.676;5.812;2023-05-14T02:44:37;16.27;;;14.27;;
58250;SDS011;51449;51.676;5.812;2023-05-14T02:47:00;16.40;;;14.10;;
58250;SDS011;51449;51.676;5.812;2023-05-14T02:49:22;16.40;;;13.97;;
58250;SDS011;51449;51.676;5.812;2023-05-14T02:51:45;19.30;;;15.37;;
58250;SDS011;51449;51.676;5.812;2023-05-14T02:54:06;17.73;;;15.70;;
58250;SDS011;51449;51.676;5.812;2023-05-14T02:56:28;16.93;;;15.13;;
58250;SDS011;51449;51.676;5.812;2023-05-14T02:58:50;18.67;;;15.23;;
58250;SDS011;51449;51.676;5.812;2023-05-14T03:01:12;17.47;;;15.40;;
58250;SDS011;51449;51.676;5.812;2023-05-14T03:03:34;20.53;;;15.73;;
58250;SDS011;51449;51.676;5.812;2023-05-14T03:05:58;21.33;;;15.57;;
58250;SDS011;51449;51.676;5.812;2023-05-14T03:08:20;20.00;;;16.00;;
58250;SDS011;51449;51.676;5.812;2023-05-14T03:10:41;16.63;;;14.70;;
58250;SDS011;51449;51.676;5.812;2023-05-14T03:13:05;18.17;;;15.53;;
58250;SDS011;51449;51.676;5.812;2023-05-14T03:15:27;16.77;;;14.97;;
58250;SDS011;51449;51.676;5.812;2023-05-14T03:17:49;17.90;;;15.77;;
58250;SDS011;51449;51.676;5.812;2023-05-14T03:20:11;18.67;;;16.70;;
58250;SDS011;51449;51.676;5.812;2023-05-14T03:22:33;20.20;;;15.73;;
58250;SDS011;51449;51.676;5.812;2023-05-14T03:24:55;21.13;;;16.40;;
58250;SDS011;51449;51.676;5.812;2023-05-14T03:27:17;17.37;;;15.57;;
58250;SDS011;51449;51.676;5.812;2023-05-14T03:29:39;18.93;;;16.93;;
58250;SDS011;51449;51.676;5.812;2023-05-14T03:32:01;19.43;;;16.33;;
58250;SDS011;51449;51.676;5.812;2023-05-14T03:34:24;19.47;;;16.97;;
58250;SDS011;51449;51.676;5.812;2023-05-14T03:36:45;20.70;;;17.33;;
58250;SDS011;51449;51.676;5.812;2023-05-14T03:39:07;18.97;;;16.93;;
58250;SDS011;51449;51.676;5.812;2023-05-14T03:41:31;20.13;;;16.40;;
58250;SDS011;51449;51.676;5.812;2023-05-14T03:43:53;18.70;;;16.67;;
58250;SDS011;51449;51.676;5.812;2023-05-14T03:46:15;20.37;;;17.00;;
58250;SDS011;51449;51.676;5.812;2023-05-14T03:48:37;22.90;;;17.90;;
58250;SDS011;51449;51.676;5.812;2023-05-14T03:50:59;23.03;;;17.80;;
58250;SDS011;51449;51.676;5.812;2023-05-14T03:53:21;21.03;;;17.20;;
58250;SDS011;51449;51.676;5.812;2023-05-14T03:55:44;19.17;;;16.83;;
58250;SDS011;51449;51.676;5.812;2023-05-14T03:58:06;21.40;;;18.03;;
58250;SDS011;51449;51.676;5.812;2023-05-14T04:00:34;21.30;;;18.03;;
58250;SDS011;51449;51.676;5.812;2023-05-14T04:02:57;22.20;;;18.20;;
58250;SDS011;51449;51.676;5.812;2023-05-14T04:05:19;21.13;;;17.60;;
58250;SDS011;51449;51.676;5.812;2023-05-14T04:07:41;26.67;;;19.00;;
58250;SDS011;51449;51.676;5.812;2023-05-14T04:10:03;25.83;;;18.13;;
58250;SDS011;51449;51.676;5.812;2023-05-14T04:12:28;21.43;;;17.73;;
58250;SDS011;51449;51.676;5.812;2023-05-14T04:14:50;20.10;;;17.80;;
58250;SDS011;51449;51.676;5.812;2023-05-14T04:17:12;23.73;;;18.17;;
58250;SDS011;51449;51.676;5.812;2023-05-14T04:19:34;24.17;;;18.00;;
58250;SDS011;51449;51.676;5.812;2023-05-14T04:21:56;21.27;;;18.03;;
58250;SDS011;51449;51.676;5.812;2023-05-14T04:24:18;28.17;;;18.70;;
58250;SDS011;51449;51.676;5.812;2023-05-14T04:26:41;22.87;;;17.10;;
58250;SDS011;51449;51.676;5.812;2023-05-14T04:29:02;26.27;;;18.33;;
58250;SDS011;51449;51.676;5.812;2023-05-14T04:31:25;22.37;;;17.97;;
58250;SDS011;51449;51.676;5.812;2023-05-14T04:33:47;21.67;;;18.37;;
58250;SDS011;51449;51.676;5.812;2023-05-14T04:36:09;23.60;;;17.43;;
58250;SDS011;51449;51.676;5.812;2023-05-14T04:38:31;21.33;;;18.33;;
58250;SDS011;51449;51.676;5.812;2023-05-14T04:40:53;22.00;;;19.07;;
58250;SDS011;51449;51.676;5.812;2023-05-14T04:43:15;23.00;;;17.90;;
58250;SDS011;51449;51.676;5.812;2023-05-14T04:45:37;25.63;;;20.07;;
58250;SDS011;51449;51.676;5.812;2023-05-14T04:48:02;27.10;;;19.75;;
58250;SDS011;51449;51.676;5.812;2023-05-14T04:52:47;24.30;;;18.87;;
58250;SDS011;51449;51.676;5.812;2023-05-14T04:55:09;22.40;;;18.17;;
58250;SDS011;51449;51.676;5.812;2023-05-14T04:57:31;22.03;;;17.70;;
58250;SDS011;51449;51.676;5.812;2023-05-14T04:59:52;23.63;;;19.27;;
58250;SDS011;51449;51.676;5.812;2023-05-14T05:02:14;21.80;;;17.93;;
58250;SDS011;51449;51.676;5.812;2023-05-14T05:04:36;22.87;;;18.13;;
58250;SDS011;51449;51.676;5.812;2023-05-14T05:06:59;22.10;;;17.07;;
58250;SDS011;51449;51.676;5.812;2023-05-14T05:09:21;22.57;;;17.13;;
58250;SDS011;51449;51.676;5.812;2023-05-14T05:11:42;19.93;;;17.47;;
58250;SDS011;51449;51.676;5.812;2023-05-14T05:14:04;24.53;;;18.40;;
58250;SDS011;51449;51.676;5.812;2023-05-14T05:16:27;23.37;;;17.37;;
58250;SDS011;51449;51.676;5.812;2023-05-14T05:18:49;22.87;;;17.33;;
58250;SDS011;51449;51.676;5.812;2023-05-14T05:21:11;22.23;;;18.00;;
58250;SDS011;51449;51.676;5.812;2023-05-14T05:23:33;22.10;;;18.17;;
58250;SDS011;51449;51.676;5.812;2023-05-14T05:25:54;20.43;;;17.87;;
58250;SDS011;51449;51.676;5.812;2023-05-14T05:28:16;21.37;;;17.27;;
58250;SDS011;51449;51.676;5.812;2023-05-14T05:30:38;20.27;;;17.73;;
58250;SDS011;51449;51.676;5.812;2023-05-14T05:33:00;20.77;;;18.47;;
58250;SDS011;51449;51.676;5.812;2023-05-14T05:35:22;23.20;;;18.23;;
58250;SDS011;51449;51.676;5.812;2023-05-14T05:37:44;22.00;;;18.00;;
58250;SDS011;51449;51.676;5.812;2023-05-14T05:40:06;21.63;;;17.47;;
58250;SDS011;51449;51.676;5.812;2023-05-14T05:42:30;25.63;;;19.15;;
58250;SDS011;51449;51.676;5.812;2023-05-14T05:44:52;21.73;;;18.53;;
58250;SDS011;51449;51.676;5.812;2023-05-14T05:47:14;21.47;;;17.77;;
58250;SDS011;51449;51.676;5.812;2023-05-14T05:49:36;22.17;;;18.83;;
58250;SDS011;51449;51.676;5.812;2023-05-14T05:51:58;21.53;;;18.27;;
58250;SDS011;51449;51.676;5.812;2023-05-14T05:54:21;25.13;;;18.37;;
58250;SDS011;51449;51.676;5.812;2023-05-14T05:59:06;22.10;;;17.90;;
58250;SDS011;51449;51.676;5.812;2023-05-14T06:01:28;23.00;;;18.20;;
58250;SDS011;51449;51.676;5.812;2023-05-14T06:03:50;20.93;;;18.33;;
58250;SDS011;51449;51.676;5.812;2023-05-14T06:06:13;21.77;;;18.73;;
58250;SDS011;51449;51.676;5.812;2023-05-14T06:08:36;22.27;;;18.00;;
58250;SDS011;51449;51.676;5.812;2023-05-14T06:10:57;27.97;;;18.67;;
58250;SDS011;51449;51.676;5.812;2023-05-14T06:13:20;22.17;;;18.60;;
58250;SDS011;51449;51.676;5.812;2023-05-14T06:15:42;25.17;;;18.93;;
58250;SDS011;51449;51.676;5.812;2023-05-14T06:18:03;25.00;;;19.60;;
58250;SDS011;51449;51.676;5.812;2023-05-14T06:20:26;22.17;;;18.57;;
58250;SDS011;51449;51.676;5.812;2023-05-14T06:22:48;26.73;;;19.83;;
58250;SDS011;51449;51.676;5.812;2023-05-14T06:25:10;25.20;;;18.90;;
58250;SDS011;51449;51.676;5.812;2023-05-14T06:27:32;22.20;;;18.57;;
58250;SDS011;51449;51.676;5.812;2023-05-14T06:29:55;23.80;;;19.83;;
58250;SDS011;51449;51.676;5.812;2023-05-14T06:32:17;24.37;;;20.37;;
58250;SDS011;51449;51.676;5.812;2023-05-14T06:34:39;27.80;;;19.63;;
58250;SDS011;51449;51.676;5.812;2023-05-14T06:37:02;22.57;;;19.67;;
58250;SDS011;51449;51.676;5.812;2023-05-14T06:39:24;21.33;;;18.27;;
58250;SDS011;51449;51.676;5.812;2023-05-14T06:41:46;23.07;;;18.87;;
58250;SDS011;51449;51.676;5.812;2023-05-14T06:44:08;28.53;;;19.73;;
58250;SDS011;51449;51.676;5.812;2023-05-14T06:46:30;25.67;;;20.00;;
58250;SDS011;51449;51.676;5.812;2023-05-14T06:48:51;25.93;;;19.83;;
58250;SDS011;51449;51.676;5.812;2023-05-14T06:51:13;23.50;;;19.23;;
58250;SDS011;51449;51.676;5.812;2023-05-14T06:53:35;22.57;;;19.10;;
58250;SDS011;51449;51.676;5.812;2023-05-14T06:55:56;22.30;;;18.90;;
58250;SDS011;51449;51.676;5.812;2023-05-14T06:58:18;23.27;;;18.90;;
58250;SDS011;51449;51.676;5.812;2023-05-14T07:00:39;23.40;;;18.73;;
58250;SDS011;51449;51.676;5.812;2023-05-14T07:03:01;21.97;;;17.93;;
58250;SDS011;51449;51.676;5.812;2023-05-14T07:05:23;21.93;;;18.33;;
58250;SDS011;51449;51.676;5.812;2023-05-14T07:07:46;21.20;;;18.47;;
58250;SDS011;51449;51.676;5.812;2023-05-14T07:10:08;21.53;;;17.93;;
58250;SDS011;51449;51.676;5.812;2023-05-14T07:12:30;23.03;;;18.17;;
58250;SDS011;51449;51.676;5.812;2023-05-14T07:14:52;24.93;;;19.20;;
58250;SDS011;51449;51.676;5.812;2023-05-14T07:17:14;24.50;;;19.03;;
58250;SDS011;51449;51.676;5.812;2023-05-14T07:19:35;21.40;;;18.00;;
58250;SDS011;51449;51.676;5.812;2023-05-14T07:21:57;21.33;;;16.97;;
58250;SDS011;51449;51.676;5.812;2023-05-14T07:24:19;20.27;;;16.93;;
58250;SDS011;51449;51.676;5.812;2023-05-14T07:26:41;22.97;;;17.97;;
58250;SDS011;51449;51.676;5.812;2023-05-14T07:29:03;21.57;;;17.20;;
58250;SDS011;51449;51.676;5.812;2023-05-14T07:31:25;22.13;;;18.17;;
58250;SDS011;51449;51.676;5.812;2023-05-14T07:33:47;22.97;;;17.97;;
58250;SDS011;51449;51.676;5.812;2023-05-14T07:36:09;20.73;;;17.37;;
58250;SDS011;51449;51.676;5.812;2023-05-14T07:38:31;22.93;;;17.40;;
58250;SDS011;51449;51.676;5.812;2023-05-14T07:40:53;20.43;;;17.67;;
58250;SDS011;51449;51.676;5.812;2023-05-14T07:43:16;21.03;;;18.07;;
58250;SDS011;51449;51.676;5.812;2023-05-14T07:45:37;19.70;;;16.97;;
58250;SDS011;51449;51.676;5.812;2023-05-14T07:47:59;21.17;;;17.47;;
58250;SDS011;51449;51.676;5.812;2023-05-14T07:50:21;23.50;;;17.33;;
58250;SDS011;51449;51.676;5.812;2023-05-14T07:52:44;19.70;;;16.43;;
58250;SDS011;51449;51.676;5.812;2023-05-14T07:55:06;21.70;;;18.10;;
58250;SDS011;51449;51.676;5.812;2023-05-14T07:57:28;20.57;;;17.27;;
58250;SDS011;51449;51.676;5.812;2023-05-14T07:59:50;21.20;;;17.00;;
58250;SDS011;51449;51.676;5.812;2023-05-14T08:02:12;19.43;;;16.37;;
58250;SDS011;51449;51.676;5.812;2023-05-14T08:04:36;21.13;;;16.90;;
58250;SDS011;51449;51.676;5.812;2023-05-14T08:06:58;20.43;;;16.60;;
58250;SDS011;51449;51.676;5.812;2023-05-14T08:09:20;19.73;;;16.03;;
58250;SDS011;51449;51.676;5.812;2023-05-14T08:11:41;19.00;;;16.67;;
58250;SDS011;51449;51.676;5.812;2023-05-14T08:14:03;22.37;;;17.47;;
58250;SDS011;51449;51.676;5.812;2023-05-14T08:16:25;20.23;;;16.87;;
58250;SDS011;51449;51.676;5.812;2023-05-14T08:18:47;20.25;;;15.57;;
58250;SDS011;51449;51.676;5.812;2023-05-14T08:21:08;23.65;;;16.58;;
58250;SDS011;51449;51.676;5.812;2023-05-14T08:23:30;20.50;;;16.75;;
58250;SDS011;51449;51.676;5.812;2023-05-14T08:25:52;22.15;;;17.63;;
58250;SDS011;51449;51.676;5.812;2023-05-14T08:28:14;20.58;;;16.25;;
58250;SDS011;51449;51.676;5.812;2023-05-14T08:30:36;20.88;;;16.60;;
58250;SDS011;51449;51.676;5.812;2023-05-14T08:32:58;19.88;;;16.17;;
58250;SDS011;51449;51.676;5.812;2023-05-14T08:35:20;20.23;;;16.02;;
58250;SDS011;51449;51.676;5.812;2023-05-14T08:37:41;17.52;;;15.40;;
58250;SDS011;51449;51.676;5.812;2023-05-14T08:40:03;18.48;;;15.38;;
58250;SDS011;51449;51.676;5.812;2023-05-14T08:42:26;18.85;;;15.73;;
58250;SDS011;51449;51.676;5.812;2023-05-14T08:44:55;20.45;;;16.48;;
58250;SDS011;51449;51.676;5.812;2023-05-14T08:47:24;19.83;;;16.02;;
58250;SDS011;51449;51.676;5.812;2023-05-14T08:49:51;19.92;;;15.73;;
58250;SDS011;51449;51.676;5.812;2023-05-14T08:52:25;18.40;;;16.20;;
58250;SDS011;51449;51.676;5.812;2023-05-14T08:54:47;18.95;;;15.68;;
58250;SDS011;51449;51.676;5.812;2023-05-14T08:57:13;20.20;;;15.68;;
58250;SDS011;51449;51.676;5.812;2023-05-14T08:59:36;19.90;;;15.55;;
58250;SDS011;51449;51.676;5.812;2023-05-14T09:02:00;20.83;;;16.05;;
58250;SDS011;51449;51.676;5.812;2023-05-14T09:04:25;21.13;;;15.23;;
58250;SDS011;51449;51.676;5.812;2023-05-14T09:06:49;18.20;;;14.88;;
58250;SDS011;51449;51.676;5.812;2023-05-14T09:09:13;17.40;;;15.02;;
58250;SDS011;51449;51.676;5.812;2023-05-14T09:11:44;19.17;;;15.88;;
58250;SDS011;51449;51.676;5.812;2023-05-14T09:14:08;17.00;;;14.52;;
58250;SDS011;51449;51.676;5.812;2023-05-14T09:16:30;20.08;;;15.30;;
58250;SDS011;51449;51.676;5.812;2023-05-14T09:18:53;18.95;;;16.05;;
58250;SDS011;51449;51.676;5.812;2023-05-14T09:21:16;17.73;;;15.77;;
58250;SDS011;51449;51.676;5.812;2023-05-14T09:23:40;19.88;;;16.05;;
58250;SDS011;51449;51.676;5.812;2023-05-14T09:26:06;19.85;;;16.23;;
58250;SDS011;51449;51.676;5.812;2023-05-14T09:28:28;17.65;;;15.63;;
58250;SDS011;51449;51.676;5.812;2023-05-14T09:30:51;19.48;;;15.88;;
58250;SDS011;51449;51.676;5.812;2023-05-14T09:33:13;19.83;;;16.13;;
58250;SDS011;51449;51.676;5.812;2023-05-14T09:35:47;18.55;;;16.13;;
58250;SDS011;51449;51.676;5.812;2023-05-14T09:38:09;17.55;;;15.57;;
58250;SDS011;51449;51.676;5.812;2023-05-14T09:40:34;17.55;;;15.52;;
58250;SDS011;51449;51.676;5.812;2023-05-14T09:42:56;19.42;;;15.68;;
58250;SDS011;51449;51.676;5.812;2023-05-14T09:45:18;17.95;;;15.13;;
58250;SDS011;51449;51.676;5.812;2023-05-14T09:47:40;16.93;;;14.87;;
58250;SDS011;51449;51.676;5.812;2023-05-14T09:50:03;17.50;;;15.23;;
58250;SDS011;51449;51.676;5.812;2023-05-14T09:52:26;17.67;;;14.50;;
58250;SDS011;51449;51.676;5.812;2023-05-14T09:54:49;17.38;;;14.40;;
58250;SDS011;51449;51.676;5.812;2023-05-14T09:57:13;15.80;;;14.10;;
58250;SDS011;51449;51.676;5.812;2023-05-14T09:59:35;16.55;;;14.75;;
58250;SDS011;51449;51.676;5.812;2023-05-14T10:01:57;17.05;;;14.98;;
58250;SDS011;51449;51.676;5.812;2023-05-14T10:04:20;20.02;;;15.35;;
58250;SDS011;51449;51.676;5.812;2023-05-14T10:06:43;18.05;;;14.48;;
58250;SDS011;51449;51.676;5.812;2023-05-14T10:09:12;16.85;;;14.32;;
58250;SDS011;51449;51.676;5.812;2023-05-14T10:11:37;16.50;;;14.75;;
58250;SDS011;51449;51.676;5.812;2023-05-14T10:16:40;15.10;;;13.52;;
58250;SDS011;51449;51.676;5.812;2023-05-14T10:19:14;15.38;;;13.48;;
58250;SDS011;51449;51.676;5.812;2023-05-14T10:21:39;14.85;;;13.35;;
58250;SDS011;51449;51.676;5.812;2023-05-14T10:24:08;14.98;;;12.52;;
58250;SDS011;51449;51.676;5.812;2023-05-14T10:26:31;17.63;;;12.68;;
58250;SDS011;51449;51.676;5.812;2023-05-14T10:28:59;13.57;;;11.65;;
58250;SDS011;51449;51.676;5.812;2023-05-14T10:31:43;14.60;;;12.63;;
58250;SDS011;51449;51.676;5.812;2023-05-14T10:39:46;15.95;;;11.43;;
58250;SDS011;51449;51.676;5.812;2023-05-14T10:42:12;11.90;;;10.65;;
58250;SDS011;51449;51.676;5.812;2023-05-14T10:44:53;13.23;;;10.48;;
58250;SDS011;51449;51.676;5.812;2023-05-14T10:47:18;15.32;;;11.18;;
58250;SDS011;51449;51.676;5.812;2023-05-14T10:49:40;11.35;;;10.15;;
58250;SDS011;51449;51.676;5.812;2023-05-14T10:52:06;13.05;;;10.35;;
58250;SDS011;51449;51.676;5.812;2023-05-14T10:54:29;13.25;;;11.02;;
58250;SDS011;51449;51.676;5.812;2023-05-14T10:56:59;10.18;;;9.02;;
58250;SDS011;51449;51.676;5.812;2023-05-14T10:59:24;11.18;;;9.18;;
58250;SDS011;51449;51.676;5.812;2023-05-14T11:01:48;11.10;;;9.82;;
58250;SDS011;51449;51.676;5.812;2023-05-14T11:04:22;10.63;;;9.00;;
58250;SDS011;51449;51.676;5.812;2023-05-14T11:09:07;10.88;;;9.18;;
58250;SDS011;51449;51.676;5.812;2023-05-14T11:11:29;10.02;;;8.50;;
58250;SDS011;51449;51.676;5.812;2023-05-14T11:13:53;9.13;;;8.27;;
58250;SDS011;51449;51.676;5.812;2023-05-14T11:16:16;9.65;;;7.97;;
58250;SDS011;51449;51.676;5.812;2023-05-14T11:18:44;9.68;;;8.68;;
58250;SDS011;51449;51.676;5.812;2023-05-14T11:21:05;11.00;;;9.90;;
58250;SDS011;51449;51.676;5.812;2023-05-14T11:23:27;10.90;;;9.65;;
58250;SDS011;51449;51.676;5.812;2023-05-14T11:25:50;11.77;;;9.55;;
58250;SDS011;51449;51.676;5.812;2023-05-14T11:28:16;10.50;;;9.02;;
58250;SDS011;51449;51.676;5.812;2023-05-14T11:30:38;11.25;;;9.13;;
58250;SDS011;51449;51.676;5.812;2023-05-14T11:33:00;10.40;;;9.40;;
58250;SDS011;51449;51.676;5.812;2023-05-14T11:35:22;10.00;;;8.82;;
58250;SDS011;51449;51.676;5.812;2023-05-14T11:37:50;8.82;;;8.02;;
58250;SDS011;51449;51.676;5.812;2023-05-14T11:40:14;9.82;;;8.93;;
58250;SDS011;51449;51.676;5.812;2023-05-14T11:42:37;9.43;;;8.52;;
58250;SDS011;51449;51.676;5.812;2023-05-14T11:44:59;10.27;;;9.00;;
58250;SDS011;51449;51.676;5.812;2023-05-14T11:47:21;8.57;;;7.68;;
58250;SDS011;51449;51.676;5.812;2023-05-14T11:49:43;9.07;;;6.57;;
58250;SDS011;51449;51.676;5.812;2023-05-14T11:52:07;6.90;;;6.07;;
58250;SDS011;51449;51.676;5.812;2023-05-14T11:54:33;6.38;;;5.80;;
58250;SDS011;51449;51.676;5.812;2023-05-14T11:56:55;7.32;;;6.55;;
58250;SDS011;51449;51.676;5.812;2023-05-14T11:59:18;6.28;;;5.68;;
58250;SDS011;51449;51.676;5.812;2023-05-14T12:01:40;6.82;;;5.90;;
58250;SDS011;51449;51.676;5.812;2023-05-14T12:04:03;6.47;;;5.82;;
58250;SDS011;51449;51.676;5.812;2023-05-14T12:06:29;6.78;;;5.80;;
58250;SDS011;51449;51.676;5.812;2023-05-14T12:08:54;5.85;;;5.25;;
58250;SDS011;51449;51.676;5.812;2023-05-14T12:11:19;6.80;;;5.90;;
58250;SDS011;51449;51.676;5.812;2023-05-14T12:13:41;7.70;;;6.82;;
58250;SDS011;51449;51.676;5.812;2023-05-14T12:16:03;7.60;;;6.85;;
58250;SDS011;51449;51.676;5.812;2023-05-14T12:18:26;7.13;;;6.40;;
58250;SDS011;51449;51.676;5.812;2023-05-14T12:20:50;7.25;;;6.38;;
58250;SDS011;51449;51.676;5.812;2023-05-14T12:23:12;7.55;;;6.32;;
58250;SDS011;51449;51.676;5.812;2023-05-14T12:25:34;6.82;;;5.75;;
58250;SDS011;51449;51.676;5.812;2023-05-14T12:27:56;6.57;;;5.97;;
58250;SDS011;51449;51.676;5.812;2023-05-14T12:30:17;6.38;;;5.78;;
58250;SDS011;51449;51.676;5.812;2023-05-14T12:32:42;6.85;;;6.07;;
58250;SDS011;51449;51.676;5.812;2023-05-14T12:35:04;7.85;;;6.97;;
58250;SDS011;51449;51.676;5.812;2023-05-14T12:37:26;9.05;;;7.30;;
58250;SDS011;51449;51.676;5.812;2023-05-14T12:39:51;7.20;;;6.50;;
58250;SDS011;51449;51.676;5.812;2023-05-14T12:42:13;7.68;;;5.70;;
58250;SDS011;51449;51.676;5.812;2023-05-14T12:44:36;6.95;;;6.25;;
58250;SDS011;51449;51.676;5.812;2023-05-14T12:46:58;6.60;;;6.00;;
58250;SDS011;51449;51.676;5.812;2023-05-14T12:49:20;6.65;;;6.03;;
58250;SDS011;51449;51.676;5.812;2023-05-14T12:51:41;7.32;;;6.60;;
58250;SDS011;51449;51.676;5.812;2023-05-14T12:54:03;6.80;;;5.80;;
58250;SDS011;51449;51.676;5.812;2023-05-14T12:56:25;7.97;;;6.18;;
58250;SDS011;51449;51.676;5.812;2023-05-14T12:58:48;6.88;;;6.20;;
58250;SDS011;51449;51.676;5.812;2023-05-14T13:01:10;6.95;;;6.20;;
58250;SDS011;51449;51.676;5.812;2023-05-14T13:03:32;8.45;;;6.78;;
58250;SDS011;51449;51.676;5.812;2023-05-14T13:05:54;7.38;;;6.60;;
58250;SDS011;51449;51.676;5.812;2023-05-14T13:08:16;8.57;;;6.50;;
58250;SDS011;51449;51.676;5.812;2023-05-14T13:10:38;8.70;;;6.30;;
58250;SDS011;51449;51.676;5.812;2023-05-14T13:13:00;8.90;;;6.90;;
58250;SDS011;51449;51.676;5.812;2023-05-14T13:15:22;6.18;;;5.68;;
58250;SDS011;51449;51.676;5.812;2023-05-14T13:17:45;6.68;;;6.03;;
58250;SDS011;51449;51.676;5.812;2023-05-14T13:20:06;5.72;;;5.22;;
58250;SDS011;51449;51.676;5.812;2023-05-14T13:22:29;8.70;;;5.88;;
58250;SDS011;51449;51.676;5.812;2023-05-14T13:24:51;6.65;;;6.00;;
58250;SDS011;51449;51.676;5.812;2023-05-14T13:27:12;6.80;;;5.32;;
58250;SDS011;51449;51.676;5.812;2023-05-14T13:29:34;6.15;;;5.50;;
58250;SDS011;51449;51.676;5.812;2023-05-14T13:31:56;6.57;;;5.35;;
58250;SDS011;51449;51.676;5.812;2023-05-14T13:34:17;5.70;;;5.20;;
58250;SDS011;51449;51.676;5.812;2023-05-14T13:36:40;6.93;;;5.40;;
58250;SDS011;51449;51.676;5.812;2023-05-14T13:41:28;6.47;;;5.55;;
58250;SDS011;51449;51.676;5.812;2023-05-14T13:43:50;5.53;;;5.00;;
58250;SDS011;51449;51.676;5.812;2023-05-14T13:46:11;6.43;;;5.10;;
58250;SDS011;51449;51.676;5.812;2023-05-14T13:48:33;7.10;;;4.78;;
58250;SDS011;51449;51.676;5.812;2023-05-14T13:50:57;6.60;;;5.30;;
58250;SDS011;51449;51.676;5.812;2023-05-14T13:53:20;6.80;;;4.97;;
58250;SDS011;51449;51.676;5.812;2023-05-14T13:55:43;5.20;;;4.18;;
58250;SDS011;51449;51.676;5.812;2023-05-14T13:58:09;5.32;;;4.82;;
58250;SDS011;51449;51.676;5.812;2023-05-14T14:00:31;6.28;;;4.68;;
58250;SDS011;51449;51.676;5.812;2023-05-14T14:02:53;6.22;;;5.63;;
58250;SDS011;51449;51.676;5.812;2023-05-14T14:05:14;7.90;;;5.80;;
58250;SDS011;51449;51.676;5.812;2023-05-14T14:07:36;6.47;;;5.50;;
58250;SDS011;51449;51.676;5.812;2023-05-14T14:09:59;7.22;;;5.80;;
58250;SDS011;51449;51.676;5.812;2023-05-14T14:12:22;7.78;;;5.55;;
58250;SDS011;51449;51.676;5.812;2023-05-14T14:14:44;7.75;;;5.38;;
58250;SDS011;51449;51.676;5.812;2023-05-14T14:17:06;6.13;;;5.50;;
58250;SDS011;51449;51.676;5.812;2023-05-14T14:19:29;6.93;;;5.07;;
58250;SDS011;51449;51.676;5.812;2023-05-14T14:21:50;6.47;;;5.78;;
58250;SDS011;51449;51.676;5.812;2023-05-14T14:24:12;6.65;;;4.63;;
58250;SDS011;51449;51.676;5.812;2023-05-14T14:26:34;7.68;;;5.13;;
58250;SDS011;51449;51.676;5.812;2023-05-14T14:28:56;7.85;;;5.43;;